Meteo Giornale » Osservazioni meteo Italia » Verona-Villafranca

ore: 23:20 - Osservazioni Meteo Verona-Villafranca
Lat. 45° 23' N Lon. 10° 52' E Alt. 67 metri s.l.m.

sereno Europe/Rome

3 °C

Sereno

Temp. 24 Ore

0 °C

16 °C

Nord/NOvest

7.4 Km/h

Dew point -2 °C

Umidità 69 %

Visibilità  10 Km

Il sole sorge alle ore 06:52

Il sole tramonta alle ore 18:04

Data e Ora Cielo e Fenomeni T °C DP °C Um. % Pres. hPa Vis. km Vento km/h
Oggi h: 23:20 sereno Sereno 3 -2 69 1032 10 N/NO 7.4
Oggi h: 22:50 sereno Sereno 4 -2 64 1032 10 N 5.5
Oggi h: 22:20 sereno Sereno 5 -2 60 1031 10 N 5.5
Oggi h: 21:50 sereno Sereno 5 -2 60 1031 10 N/NO 7.4
Oggi h: 21:20 sereno Sereno 5 -2 60 1031 10 N 5.5
Oggi h: 20:50 sereno Sereno 6 -1 60 1031 10 N/NO 7.4
Oggi h: 19:50 sereno Sereno 8 -2 49 1031 10 N/NO 7.4
Oggi h: 19:20 sereno Sereno 9 -2 45 1030 10 N 5.5
Oggi h: 18:50 sereno Sereno 10 -3 39 1030 10 N 3.7
Oggi h: 18:20 sereno Sereno 12 -3 34 1030 10 N 3.7
Oggi h: 17:50 sereno Sereno 14 -5 26 1030 10 N 3.7
Oggi h: 17:20 sereno Sereno 15 -5 24 1029 10 N 5.5
Oggi h: 16:50 sereno Sereno 15 -5 24 1029 10 N 5.5
Oggi h: 15:50 sereno Sereno 15 -5 24 1029 10 N 3.7
Oggi h: 15:20 sereno Sereno 16 -5 23 1029 10 N 5.5
Oggi h: 14:50 sereno Sereno 15 -5 24 1030 10 N 5.5
Oggi h: 14:20 sereno Sereno 15 -3 28 1030 10 N 3.7
Oggi h: 13:50 sereno Sereno 15 -2 30 1030 10 N 3.7
Oggi h: 11:50 sereno Sereno 11 -1 43 1031 10 N 5.5
Oggi h: 11:20 sereno Sereno 11 0 46 1031 10 N 3.7
Oggi h: 10:50 sereno Sereno 10 0 49 1031 10 N 3.7
Oggi h: 10:20 sereno Sereno 9 1 57 1031 10 N 3.7
Oggi h: 09:50 sereno Sereno 8 1 61 1031 10 N 3.7
Oggi h: 09:20 sereno Sereno 7 1 65 1031 10 N 3.7
Oggi h: 08:50 sereno Sereno 5 0 70 1031 10 N 3.7
Oggi h: 08:20 sereno Sereno 4 -1 69 1031 10 N 3.7
Oggi h: 07:50 sereno Sereno 2 -2 74 1030 10 N 1.8
Oggi h: 07:20 sereno Sereno 0 -2 86 1030 10 N 5.5
Oggi h: 06:50 sereno Sereno 0 -2 86 1030 10 N/NO 9.3
Oggi h: 05:50 sereno Sereno -0 -2 86 1030 10 N 1.8
Oggi h: 03:20 sereno Sereno 1 -1 86 1030 10 N 1.8
Oggi h: 02:50 sereno Sereno 1 -1 86 1031 10 N 5.5
Oggi h: 02:20 sereno Sereno 1 -2 80 1031 10 NO 7.4
Oggi h: 01:50 sereno Sereno 3 -0 80 1031 10 N 3.7
Oggi h: 01:20 sereno Sereno 2 -2 74 1031 10 N 3.7
Oggi h: 00:50 sereno Sereno 2 -1 80 1031 10 N 5.5
Oggi h: 00:20 sereno Sereno 2 -1 80 1031 10 N 5.5
Ieri h: 23:50 sereno Sereno 3 -1 74 1031 10 N/NO 11.1
Ieri h: 23:20 sereno Sereno 3 -1 74 1031 10 N/NO 11.1
Ieri h: 22:50 sereno Sereno 3 -1 74 1031 10 N/NO 9.3